EWG79X EDDK-LIRF
Flight info
| Callsign | EWG79X |
|---|---|
| Flight time | 1h 22m |
| Altitude | 39000 |
| Route | KUMIK8F KUMIK Y854 BOMBI DCT GIGET DCT ABUKA DCT BATUB DCT TIRUL M738 NATAG DCT LORLO DCT UNTAD DCT PELEG DCT GAVRA Y345 RITEB |
| Aircraft | A319/M-SDE3FGHIRWY/LB1 |
Departure
| Time | 2026-02-20 09:57 |
|---|---|
| Airport | Cologne Bonn Airport (EDDK) |
Arrival
| Time | 2026-02-20 11:19 |
|---|---|
| Airport | Rome–Fiumicino Leonardo da Vinci International Airport (LIRF) |
| Time | Latitude | Longitude | Altitude | Speed | Heading |
|---|---|---|---|---|---|
| 2026-02-20 09:15 | 50.87697 | 7.12380 | 232 ft | 0 kts | 288° |
| 2026-02-20 09:46 | 50.87693 | 7.12400 | 232 ft | 3 kts | 289° |
| 2026-02-20 09:47 | 50.87686 | 7.12430 | 236 ft | 3 kts | 294° |
| 2026-02-20 09:47 | 50.87677 | 7.12458 | 235 ft | 3 kts | 303° |
| 2026-02-20 09:47 | 50.87665 | 7.12482 | 236 ft | 3 kts | 328° |
| 2026-02-20 09:47 | 50.87652 | 7.12491 | 234 ft | 2 kts | 14° |
| 2026-02-20 09:48 | 50.87649 | 7.12490 | 234 ft | 0 kts | 18° |
| 2026-02-20 09:53 | 50.87650 | 7.12491 | 234 ft | 1 kts | 18° |
| 2026-02-20 09:53 | 50.87664 | 7.12498 | 234 ft | 4 kts | 18° |
| 2026-02-20 09:53 | 50.87713 | 7.12522 | 232 ft | 10 kts | 18° |
| 2026-02-20 09:53 | 50.87786 | 7.12559 | 232 ft | 12 kts | 18° |
| 2026-02-20 09:54 | 50.87873 | 7.12604 | 233 ft | 13 kts | 18° |
| 2026-02-20 09:54 | 50.87957 | 7.12671 | 232 ft | 15 kts | 43° |
| 2026-02-20 09:54 | 50.88005 | 7.12794 | 238 ft | 12 kts | 71° |
| 2026-02-20 09:54 | 50.88010 | 7.12922 | 239 ft | 12 kts | 97° |
| 2026-02-20 09:55 | 50.87949 | 7.13050 | 239 ft | 19 kts | 138° |
| 2026-02-20 09:55 | 50.87941 | 7.13063 | 239 ft | 0 kts | 138° |
| 2026-02-20 09:56 | 50.87901 | 7.13120 | 239 ft | 32 kts | 137° |
| 2026-02-20 09:56 | 50.87573 | 7.13595 | 240 ft | 94 kts | 137° |
| 2026-02-20 09:56 | 50.86949 | 7.14497 | 306 ft | 141 kts | 137° |
| 2026-02-20 09:57 | 50.86234 | 7.15534 | 963 ft | 139 kts | 137° |
| 2026-02-20 09:57 | 50.85503 | 7.16563 | 1601 ft | 146 kts | 142° |
| 2026-02-20 09:57 | 50.84675 | 7.17710 | 1885 ft | 170 kts | 143° |
| 2026-02-20 09:57 | 50.83728 | 7.19026 | 2181 ft | 194 kts | 142° |
| 2026-02-20 09:58 | 50.82652 | 7.20530 | 2572 ft | 217 kts | 141° |
| 2026-02-20 09:58 | 50.81695 | 7.22475 | 3281 ft | 231 kts | 122° |
| 2026-02-20 09:58 | 50.81191 | 7.24921 | 4034 ft | 245 kts | 97° |
| 2026-02-20 09:58 | 50.81034 | 7.27738 | 4574 ft | 267 kts | 96° |
| 2026-02-20 09:59 | 50.80836 | 7.30691 | 5458 ft | 273 kts | 98° |
| 2026-02-20 09:59 | 50.80607 | 7.33700 | 6378 ft | 278 kts | 99° |
| 2026-02-20 09:59 | 50.80356 | 7.36771 | 7253 ft | 284 kts | 99° |
| 2026-02-20 09:59 | 50.80066 | 7.39888 | 8129 ft | 288 kts | 104° |
| 2026-02-20 10:00 | 50.79272 | 7.42773 | 8979 ft | 288 kts | 129° |
| 2026-02-20 10:00 | 50.77831 | 7.44935 | 9867 ft | 286 kts | 150° |
| 2026-02-20 10:00 | 50.76125 | 7.46600 | 10567 ft | 296 kts | 152° |
| 2026-02-20 10:00 | 50.74295 | 7.48346 | 10841 ft | 319 kts | 152° |
| 2026-02-20 10:01 | 50.72355 | 7.50191 | 11390 ft | 330 kts | 152° |
| 2026-02-20 10:01 | 50.70378 | 7.52080 | 12129 ft | 334 kts | 152° |
| 2026-02-20 10:01 | 50.68378 | 7.54003 | 12845 ft | 340 kts | 152° |
| 2026-02-20 10:01 | 50.66373 | 7.55935 | 13531 ft | 345 kts | 152° |
| 2026-02-20 10:02 | 50.64280 | 7.57952 | 14203 ft | 351 kts | 152° |
| 2026-02-20 10:02 | 50.62211 | 7.59950 | 14816 ft | 356 kts | 151° |
| 2026-02-20 10:02 | 50.60057 | 7.62027 | 15407 ft | 361 kts | 150° |
| 2026-02-20 10:02 | 50.57929 | 7.64074 | 16007 ft | 366 kts | 150° |
| 2026-02-20 10:03 | 50.55742 | 7.66173 | 16625 ft | 371 kts | 150° |
| 2026-02-20 10:03 | 50.53524 | 7.68299 | 17231 ft | 375 kts | 150° |
| 2026-02-20 10:03 | 50.51264 | 7.70386 | 17835 ft | 379 kts | 152° |
| 2026-02-20 10:03 | 50.48919 | 7.72340 | 18438 ft | 384 kts | 154° |
| 2026-02-20 10:04 | 50.46511 | 7.74216 | 18954 ft | 388 kts | 155° |
| 2026-02-20 10:04 | 50.44059 | 7.76071 | 19454 ft | 393 kts | 155° |
| 2026-02-20 10:04 | 50.41576 | 7.77946 | 19949 ft | 398 kts | 155° |
| 2026-02-20 10:04 | 50.39070 | 7.79857 | 20452 ft | 403 kts | 154° |
| 2026-02-20 10:05 | 50.36537 | 7.81819 | 20937 ft | 409 kts | 154° |
| 2026-02-20 10:05 | 50.34810 | 7.83170 | 21263 ft | 412 kts | 153° |
| 2026-02-20 10:05 | 50.32233 | 7.85197 | 21727 ft | 417 kts | 153° |
| 2026-02-20 10:05 | 50.29664 | 7.87221 | 22263 ft | 420 kts | 153° |
| 2026-02-20 10:06 | 50.27039 | 7.89288 | 22753 ft | 425 kts | 153° |
| 2026-02-20 10:06 | 50.24379 | 7.91378 | 23217 ft | 430 kts | 152° |
| 2026-02-20 10:06 | 50.21688 | 7.93486 | 23668 ft | 435 kts | 152° |
| 2026-02-20 10:06 | 50.18967 | 7.95605 | 24055 ft | 440 kts | 152° |
| 2026-02-20 10:07 | 50.16213 | 7.97742 | 24443 ft | 444 kts | 153° |
| 2026-02-20 10:07 | 50.13436 | 7.99888 | 24828 ft | 447 kts | 152° |
| 2026-02-20 10:07 | 50.10633 | 8.02051 | 25219 ft | 451 kts | 153° |
| 2026-02-20 10:07 | 50.07812 | 8.04230 | 25612 ft | 454 kts | 153° |
| 2026-02-20 10:08 | 50.04975 | 8.06422 | 26001 ft | 457 kts | 153° |
| 2026-02-20 10:08 | 50.02117 | 8.08629 | 26388 ft | 460 kts | 153° |
| 2026-02-20 10:08 | 49.99240 | 8.10850 | 26764 ft | 463 kts | 153° |
| 2026-02-20 10:08 | 49.96339 | 8.13091 | 27138 ft | 466 kts | 153° |
| 2026-02-20 10:09 | 49.93427 | 8.15340 | 27519 ft | 469 kts | 153° |
| 2026-02-20 10:09 | 49.90493 | 8.17600 | 27870 ft | 472 kts | 153° |
| 2026-02-20 10:09 | 49.87536 | 8.19871 | 28244 ft | 476 kts | 152° |
| 2026-02-20 10:09 | 49.84559 | 8.22152 | 28587 ft | 479 kts | 152° |
| 2026-02-20 10:10 | 49.81559 | 8.24447 | 28941 ft | 482 kts | 153° |
| 2026-02-20 10:10 | 49.78542 | 8.26752 | 29302 ft | 486 kts | 153° |
| 2026-02-20 10:10 | 49.75499 | 8.29070 | 29645 ft | 489 kts | 153° |
| 2026-02-20 10:10 | 49.72440 | 8.31393 | 29986 ft | 492 kts | 153° |
| 2026-02-20 10:11 | 49.69360 | 8.33731 | 30310 ft | 495 kts | 153° |
| 2026-02-20 10:11 | 49.66263 | 8.36084 | 30584 ft | 497 kts | 153° |
| 2026-02-20 10:11 | 49.63149 | 8.38451 | 30854 ft | 500 kts | 153° |
| 2026-02-20 10:11 | 49.60021 | 8.40827 | 31132 ft | 503 kts | 153° |
| 2026-02-20 10:12 | 49.56873 | 8.43212 | 31405 ft | 505 kts | 153° |
| 2026-02-20 10:12 | 49.53713 | 8.45605 | 31716 ft | 507 kts | 153° |
| 2026-02-20 10:12 | 49.50534 | 8.48004 | 31997 ft | 509 kts | 153° |
| 2026-02-20 10:12 | 49.47351 | 8.50396 | 32388 ft | 509 kts | 153° |
| 2026-02-20 10:13 | 49.44170 | 8.52781 | 32775 ft | 508 kts | 153° |
| 2026-02-20 10:13 | 49.40999 | 8.55158 | 33119 ft | 508 kts | 153° |
| 2026-02-20 10:13 | 49.37814 | 8.57547 | 33475 ft | 509 kts | 153° |
| 2026-02-20 10:13 | 49.34636 | 8.59930 | 33846 ft | 509 kts | 153° |
| 2026-02-20 10:14 | 49.31454 | 8.62313 | 34226 ft | 509 kts | 153° |
| 2026-02-20 10:14 | 49.28273 | 8.64694 | 34558 ft | 508 kts | 153° |
| 2026-02-20 10:14 | 49.25099 | 8.67072 | 34897 ft | 508 kts | 154° |
| 2026-02-20 10:14 | 49.21924 | 8.69445 | 35240 ft | 507 kts | 154° |
| 2026-02-20 10:15 | 49.18748 | 8.71806 | 35550 ft | 506 kts | 154° |
| 2026-02-20 10:15 | 49.15571 | 8.74155 | 35835 ft | 507 kts | 154° |
| 2026-02-20 10:15 | 49.12397 | 8.76496 | 36136 ft | 507 kts | 154° |
| 2026-02-20 10:15 | 49.09262 | 8.78811 | 36428 ft | 506 kts | 154° |
| 2026-02-20 10:16 | 49.06102 | 8.81150 | 36690 ft | 505 kts | 154° |
| 2026-02-20 10:16 | 49.02942 | 8.83489 | 36972 ft | 504 kts | 154° |
| 2026-02-20 10:16 | 48.99784 | 8.85822 | 37164 ft | 504 kts | 154° |
| 2026-02-20 10:17 | 48.93481 | 8.90468 | 37215 ft | 503 kts | 154° |
| 2026-02-20 10:17 | 48.87166 | 8.95100 | 37215 ft | 504 kts | 154° |
| 2026-02-20 10:18 | 48.80857 | 8.99710 | 37215 ft | 504 kts | 154° |
| 2026-02-20 10:18 | 48.75566 | 9.03563 | 37218 ft | 504 kts | 154° |
| 2026-02-20 10:19 | 48.68225 | 9.08912 | 37205 ft | 503 kts | 154° |
| 2026-02-20 10:19 | 48.61913 | 9.13502 | 37208 ft | 503 kts | 154° |
| 2026-02-20 10:20 | 48.55595 | 9.18067 | 37235 ft | 502 kts | 153° |
| 2026-02-20 10:20 | 48.49294 | 9.22602 | 37219 ft | 501 kts | 153° |
| 2026-02-20 10:21 | 48.43045 | 9.27096 | 37218 ft | 501 kts | 153° |
| 2026-02-20 10:21 | 48.36758 | 9.31615 | 37212 ft | 500 kts | 153° |
| 2026-02-20 10:22 | 48.30475 | 9.36114 | 37209 ft | 500 kts | 153° |
| 2026-02-20 10:22 | 48.24192 | 9.40590 | 37196 ft | 500 kts | 153° |
| 2026-02-20 10:23 | 48.17909 | 9.45061 | 37221 ft | 499 kts | 153° |
| 2026-02-20 10:23 | 48.11638 | 9.49511 | 37247 ft | 497 kts | 153° |
| 2026-02-20 10:24 | 48.05397 | 9.53920 | 37245 ft | 495 kts | 153° |
| 2026-02-20 10:24 | 47.99422 | 9.58932 | 37232 ft | 490 kts | 142° |
| 2026-02-20 10:25 | 47.93805 | 9.64710 | 37228 ft | 490 kts | 142° |
| 2026-02-20 10:25 | 47.88210 | 9.70412 | 37222 ft | 490 kts | 142° |
| 2026-02-20 10:26 | 47.82576 | 9.76134 | 37244 ft | 490 kts | 142° |
| 2026-02-20 10:26 | 47.76943 | 9.81852 | 37240 ft | 490 kts | 141° |
| 2026-02-20 10:27 | 47.71315 | 9.87557 | 37232 ft | 490 kts | 142° |
| 2026-02-20 10:27 | 47.65673 | 9.93248 | 37223 ft | 490 kts | 142° |
| 2026-02-20 10:28 | 47.60026 | 9.98932 | 37207 ft | 490 kts | 142° |
| 2026-02-20 10:28 | 47.54386 | 10.04610 | 37190 ft | 490 kts | 142° |
| 2026-02-20 10:29 | 47.48773 | 10.10238 | 37184 ft | 491 kts | 141° |
| 2026-02-20 10:29 | 47.43112 | 10.15886 | 37158 ft | 491 kts | 142° |
| 2026-02-20 10:30 | 47.37442 | 10.21529 | 37140 ft | 492 kts | 141° |
| 2026-02-20 10:30 | 47.31762 | 10.27180 | 37133 ft | 492 kts | 142° |
| 2026-02-20 10:31 | 47.26077 | 10.32821 | 37098 ft | 492 kts | 142° |
| 2026-02-20 10:31 | 47.20391 | 10.38441 | 37134 ft | 493 kts | 142° |
| 2026-02-20 10:32 | 47.14700 | 10.44043 | 37117 ft | 492 kts | 142° |
| 2026-02-20 10:32 | 47.08998 | 10.49645 | 37105 ft | 493 kts | 142° |
| 2026-02-20 10:33 | 47.02819 | 10.54064 | 37090 ft | 500 kts | 163° |
| 2026-02-20 10:33 | 46.96085 | 10.56629 | 37079 ft | 500 kts | 164° |
| 2026-02-20 10:34 | 46.89390 | 10.59197 | 37066 ft | 500 kts | 164° |
| 2026-02-20 10:34 | 46.82640 | 10.61754 | 37069 ft | 500 kts | 164° |
| 2026-02-20 10:35 | 46.75899 | 10.64272 | 37064 ft | 499 kts | 165° |
| 2026-02-20 10:35 | 46.69174 | 10.66788 | 37037 ft | 498 kts | 165° |
| 2026-02-20 10:36 | 46.62470 | 10.69290 | 36977 ft | 497 kts | 165° |
| 2026-02-20 10:36 | 46.55767 | 10.71793 | 36961 ft | 497 kts | 165° |
| 2026-02-20 10:37 | 46.49060 | 10.74291 | 36942 ft | 497 kts | 165° |
| 2026-02-20 10:37 | 46.42349 | 10.76774 | 36901 ft | 497 kts | 165° |
| 2026-02-20 10:38 | 46.35682 | 10.79231 | 36897 ft | 497 kts | 165° |
| 2026-02-20 10:38 | 46.28969 | 10.81698 | 36891 ft | 497 kts | 165° |
| 2026-02-20 10:39 | 46.22272 | 10.84168 | 36930 ft | 496 kts | 164° |
| 2026-02-20 10:39 | 46.15656 | 10.86962 | 36924 ft | 495 kts | 160° |
| 2026-02-20 10:40 | 46.09144 | 10.90117 | 36899 ft | 493 kts | 160° |
| 2026-02-20 10:40 | 46.02642 | 10.93270 | 36885 ft | 493 kts | 160° |
| 2026-02-20 10:41 | 45.96108 | 10.96306 | 36887 ft | 493 kts | 161° |
| 2026-02-20 10:41 | 45.89569 | 10.99275 | 36887 ft | 492 kts | 161° |
| 2026-02-20 10:42 | 45.83082 | 11.02221 | 36881 ft | 492 kts | 161° |
| 2026-02-20 10:42 | 45.76560 | 11.05214 | 36890 ft | 492 kts | 161° |
| 2026-02-20 10:43 | 45.70051 | 11.08199 | 36937 ft | 491 kts | 161° |
| 2026-02-20 10:43 | 45.60297 | 11.12637 | 36942 ft | 489 kts | 161° |
| 2026-02-20 10:44 | 45.53807 | 11.15568 | 36943 ft | 489 kts | 161° |
| 2026-02-20 10:44 | 45.47323 | 11.18500 | 36940 ft | 488 kts | 161° |
| 2026-02-20 10:45 | 45.40840 | 11.21425 | 36923 ft | 488 kts | 161° |
| 2026-02-20 10:45 | 45.34354 | 11.24336 | 36923 ft | 488 kts | 161° |
| 2026-02-20 10:46 | 45.27911 | 11.27244 | 36915 ft | 489 kts | 161° |
| 2026-02-20 10:46 | 45.21424 | 11.30164 | 36916 ft | 489 kts | 161° |
| 2026-02-20 10:47 | 45.14922 | 11.33073 | 36921 ft | 489 kts | 162° |
| 2026-02-20 10:47 | 45.08414 | 11.35957 | 36925 ft | 489 kts | 162° |
| 2026-02-20 10:48 | 45.01913 | 11.38847 | 36920 ft | 489 kts | 162° |
| 2026-02-20 10:48 | 44.95441 | 11.41720 | 36909 ft | 490 kts | 162° |
| 2026-02-20 10:49 | 44.88932 | 11.44606 | 36906 ft | 490 kts | 162° |
| 2026-02-20 10:49 | 44.83477 | 11.47019 | 36941 ft | 490 kts | 162° |
| 2026-02-20 10:50 | 44.77012 | 11.49883 | 36942 ft | 489 kts | 162° |
| 2026-02-20 10:50 | 44.70523 | 11.52743 | 36946 ft | 489 kts | 162° |
| 2026-02-20 10:51 | 44.64020 | 11.55588 | 36950 ft | 489 kts | 162° |
| 2026-02-20 10:51 | 44.57525 | 11.58427 | 36927 ft | 489 kts | 162° |
| 2026-02-20 10:52 | 44.51025 | 11.61259 | 36923 ft | 490 kts | 162° |
| 2026-02-20 10:52 | 44.44513 | 11.64099 | 36918 ft | 490 kts | 162° |
| 2026-02-20 10:53 | 44.37995 | 11.66937 | 36923 ft | 491 kts | 162° |
| 2026-02-20 10:53 | 44.31467 | 11.69780 | 36950 ft | 490 kts | 162° |
| 2026-02-20 10:54 | 44.24952 | 11.72590 | 36961 ft | 489 kts | 163° |
| 2026-02-20 10:54 | 44.18336 | 11.74413 | 36959 ft | 488 kts | 172° |
| 2026-02-20 10:55 | 44.11616 | 11.75740 | 36952 ft | 488 kts | 172° |
| 2026-02-20 10:55 | 44.04898 | 11.77069 | 36949 ft | 487 kts | 172° |
| 2026-02-20 10:56 | 43.98189 | 11.78412 | 36936 ft | 487 kts | 172° |
| 2026-02-20 10:56 | 43.91480 | 11.79738 | 36916 ft | 487 kts | 172° |
| 2026-02-20 10:57 | 43.84781 | 11.81072 | 36466 ft | 487 kts | 172° |
| 2026-02-20 10:57 | 43.81432 | 11.81784 | 36060 ft | 487 kts | 171° |
| 2026-02-20 10:57 | 43.78083 | 11.82544 | 35623 ft | 488 kts | 171° |
| 2026-02-20 10:58 | 43.74727 | 11.83332 | 35196 ft | 489 kts | 170° |
| 2026-02-20 10:58 | 43.71371 | 11.84115 | 34786 ft | 490 kts | 170° |
| 2026-02-20 10:58 | 43.68007 | 11.84892 | 34354 ft | 490 kts | 170° |
| 2026-02-20 10:58 | 43.64643 | 11.85659 | 33858 ft | 489 kts | 169° |
| 2026-02-20 10:59 | 43.61279 | 11.86424 | 32992 ft | 489 kts | 169° |
| 2026-02-20 10:59 | 43.57937 | 11.87188 | 32305 ft | 484 kts | 169° |
| 2026-02-20 10:59 | 43.54635 | 11.87945 | 31657 ft | 479 kts | 169° |
| 2026-02-20 10:59 | 43.51356 | 11.88698 | 31014 ft | 475 kts | 169° |
| 2026-02-20 11:00 | 43.48148 | 11.89440 | 30389 ft | 473 kts | 169° |
| 2026-02-20 11:00 | 43.44895 | 11.90193 | 29804 ft | 476 kts | 169° |
| 2026-02-20 11:00 | 43.41610 | 11.90947 | 29191 ft | 478 kts | 169° |
| 2026-02-20 11:00 | 43.38324 | 11.91695 | 28624 ft | 479 kts | 169° |
| 2026-02-20 11:01 | 43.35043 | 11.92435 | 28046 ft | 476 kts | 169° |
| 2026-02-20 11:01 | 43.31794 | 11.93165 | 27483 ft | 470 kts | 169° |
| 2026-02-20 11:01 | 43.28578 | 11.93887 | 26950 ft | 465 kts | 169° |
| 2026-02-20 11:01 | 43.25413 | 11.94600 | 26416 ft | 457 kts | 169° |
| 2026-02-20 11:02 | 43.22309 | 11.95303 | 25912 ft | 448 kts | 168° |
| 2026-02-20 11:02 | 43.19269 | 11.95992 | 25442 ft | 439 kts | 168° |
| 2026-02-20 11:02 | 43.16286 | 11.96666 | 24951 ft | 431 kts | 168° |
| 2026-02-20 11:02 | 43.13349 | 11.97332 | 24493 ft | 423 kts | 168° |
| 2026-02-20 11:03 | 43.10466 | 11.97985 | 24033 ft | 417 kts | 168° |
| 2026-02-20 11:03 | 43.07624 | 11.98629 | 23573 ft | 411 kts | 167° |
| 2026-02-20 11:03 | 43.04817 | 11.99263 | 23065 ft | 405 kts | 167° |
| 2026-02-20 11:03 | 43.02056 | 11.99888 | 22597 ft | 398 kts | 168° |
| 2026-02-20 11:04 | 42.99344 | 12.00500 | 22150 ft | 391 kts | 168° |
| 2026-02-20 11:04 | 42.96677 | 12.01099 | 21666 ft | 385 kts | 169° |
| 2026-02-20 11:04 | 42.94057 | 12.01686 | 21205 ft | 379 kts | 169° |
| 2026-02-20 11:04 | 42.91508 | 12.02257 | 20721 ft | 374 kts | 169° |
| 2026-02-20 11:05 | 42.88903 | 12.02842 | 19901 ft | 386 kts | 170° |
| 2026-02-20 11:05 | 42.86237 | 12.03440 | 19244 ft | 391 kts | 170° |
| 2026-02-20 11:05 | 42.83525 | 12.04046 | 18477 ft | 399 kts | 171° |
| 2026-02-20 11:05 | 42.80739 | 12.04669 | 17445 ft | 410 kts | 171° |
| 2026-02-20 11:06 | 42.77883 | 12.05309 | 16634 ft | 409 kts | 172° |
| 2026-02-20 11:06 | 42.75124 | 12.05928 | 15929 ft | 406 kts | 172° |
| 2026-02-20 11:06 | 42.72346 | 12.06549 | 15225 ft | 403 kts | 172° |
| 2026-02-20 11:06 | 42.69590 | 12.07165 | 14522 ft | 400 kts | 172° |
| 2026-02-20 11:07 | 42.66851 | 12.07777 | 13872 ft | 398 kts | 172° |
| 2026-02-20 11:07 | 42.64119 | 12.08384 | 13238 ft | 397 kts | 172° |
| 2026-02-20 11:07 | 42.61403 | 12.08985 | 12720 ft | 394 kts | 172° |
| 2026-02-20 11:07 | 42.58706 | 12.09583 | 12195 ft | 392 kts | 172° |
| 2026-02-20 11:08 | 42.56027 | 12.10182 | 11700 ft | 389 kts | 172° |
| 2026-02-20 11:08 | 42.53375 | 12.10774 | 11155 ft | 384 kts | 172° |
| 2026-02-20 11:08 | 42.50751 | 12.11356 | 10539 ft | 380 kts | 172° |
| 2026-02-20 11:08 | 42.48153 | 12.11932 | 9938 ft | 376 kts | 171° |
| 2026-02-20 11:09 | 42.45579 | 12.12500 | 9316 ft | 373 kts | 172° |
| 2026-02-20 11:09 | 42.43033 | 12.12969 | 8513 ft | 366 kts | 174° |
| 2026-02-20 11:09 | 42.40517 | 12.13294 | 7666 ft | 361 kts | 176° |
| 2026-02-20 11:09 | 42.38056 | 12.13530 | 7467 ft | 346 kts | 177° |
| 2026-02-20 11:10 | 42.35706 | 12.13730 | 7334 ft | 329 kts | 177° |
| 2026-02-20 11:10 | 42.33458 | 12.13926 | 7211 ft | 319 kts | 176° |
| 2026-02-20 11:10 | 42.31273 | 12.14133 | 7080 ft | 311 kts | 176° |
| 2026-02-20 11:10 | 42.29143 | 12.14352 | 6953 ft | 302 kts | 176° |
| 2026-02-20 11:11 | 42.27085 | 12.14574 | 6818 ft | 292 kts | 175° |
| 2026-02-20 11:11 | 42.25074 | 12.14792 | 6569 ft | 288 kts | 175° |
| 2026-02-20 11:11 | 42.23084 | 12.15012 | 6311 ft | 286 kts | 175° |
| 2026-02-20 11:11 | 42.21107 | 12.15230 | 6002 ft | 285 kts | 175° |
| 2026-02-20 11:12 | 42.19139 | 12.15449 | 5722 ft | 282 kts | 176° |
| 2026-02-20 11:12 | 42.17189 | 12.15666 | 5355 ft | 279 kts | 176° |
| 2026-02-20 11:12 | 42.15285 | 12.15874 | 5096 ft | 270 kts | 176° |
| 2026-02-20 11:12 | 42.13449 | 12.16070 | 4897 ft | 259 kts | 176° |
| 2026-02-20 11:13 | 42.11691 | 12.16257 | 4739 ft | 248 kts | 176° |
| 2026-02-20 11:13 | 42.09987 | 12.16439 | 4610 ft | 241 kts | 176° |
| 2026-02-20 11:13 | 42.08408 | 12.16610 | 4466 ft | 227 kts | 176° |
| 2026-02-20 11:13 | 42.06885 | 12.16817 | 4355 ft | 214 kts | 169° |
| 2026-02-20 11:14 | 42.05515 | 12.17336 | 4270 ft | 202 kts | 163° |
| 2026-02-20 11:14 | 42.04202 | 12.17901 | 4060 ft | 195 kts | 163° |
| 2026-02-20 11:14 | 42.02913 | 12.18449 | 3814 ft | 194 kts | 163° |
| 2026-02-20 11:14 | 42.01628 | 12.18992 | 3543 ft | 193 kts | 163° |
| 2026-02-20 11:15 | 42.00350 | 12.19530 | 3287 ft | 192 kts | 163° |
| 2026-02-20 11:15 | 41.99078 | 12.20066 | 3024 ft | 191 kts | 163° |
| 2026-02-20 11:15 | 41.97808 | 12.20600 | 2770 ft | 191 kts | 163° |
| 2026-02-20 11:15 | 41.96543 | 12.21133 | 2503 ft | 189 kts | 163° |
| 2026-02-20 11:16 | 41.95306 | 12.21653 | 2251 ft | 182 kts | 163° |
| 2026-02-20 11:16 | 41.94151 | 12.22139 | 2015 ft | 165 kts | 163° |
| 2026-02-20 11:16 | 41.93109 | 12.22577 | 1797 ft | 150 kts | 162° |
| 2026-02-20 11:16 | 41.92138 | 12.22985 | 1595 ft | 143 kts | 162° |
| 2026-02-20 11:17 | 41.91196 | 12.23380 | 1409 ft | 140 kts | 163° |
| 2026-02-20 11:17 | 41.90273 | 12.23766 | 1200 ft | 138 kts | 163° |
| 2026-02-20 11:17 | 41.89363 | 12.24147 | 994 ft | 136 kts | 163° |
| 2026-02-20 11:17 | 41.88460 | 12.24527 | 819 ft | 136 kts | 163° |
| 2026-02-20 11:18 | 41.87550 | 12.24909 | 665 ft | 137 kts | 163° |
| 2026-02-20 11:18 | 41.86645 | 12.25289 | 484 ft | 135 kts | 161° |
| 2026-02-20 11:18 | 41.85752 | 12.25663 | 303 ft | 134 kts | 161° |
| 2026-02-20 11:18 | 41.84862 | 12.26036 | 131 ft | 133 kts | 160° |
| 2026-02-20 11:19 | 41.84004 | 12.26398 | 21 ft | 119 kts | 160° |
| 2026-02-20 11:19 | 41.83333 | 12.26680 | 12 ft | 81 kts | 162° |
| 2026-02-20 11:19 | 41.82924 | 12.26848 | 12 ft | 44 kts | 165° |
| 2026-02-20 11:19 | 41.82682 | 12.26860 | 11 ft | 32 kts | 189° |
| 2026-02-20 11:20 | 41.82488 | 12.26804 | 11 ft | 27 kts | 193° |
| 2026-02-20 11:20 | 41.82332 | 12.26784 | 12 ft | 24 kts | 172° |
| 2026-02-20 11:20 | 41.82175 | 12.26841 | 12 ft | 24 kts | 163° |
| 2026-02-20 11:20 | 41.82004 | 12.26913 | 11 ft | 22 kts | 162° |
| 2026-02-20 11:21 | 41.81842 | 12.26981 | 12 ft | 27 kts | 162° |
| 2026-02-20 11:21 | 41.81642 | 12.27064 | 12 ft | 33 kts | 162° |
| 2026-02-20 11:21 | 41.81427 | 12.27154 | 12 ft | 33 kts | 162° |
| 2026-02-20 11:21 | 41.81242 | 12.27231 | 12 ft | 24 kts | 162° |
| 2026-02-20 11:22 | 41.81097 | 12.27292 | 13 ft | 23 kts | 162° |
| 2026-02-20 11:22 | 41.80953 | 12.27347 | 13 ft | 18 kts | 171° |
| 2026-02-20 11:22 | 41.80829 | 12.27332 | 13 ft | 18 kts | 190° |
| 2026-02-20 11:22 | 41.80710 | 12.27300 | 13 ft | 17 kts | 202° |
| 2026-02-20 11:23 | 41.80643 | 12.27181 | 13 ft | 16 kts | 249° |
| 2026-02-20 11:23 | 41.80606 | 12.27044 | 13 ft | 15 kts | 249° |
| 2026-02-20 11:23 | 41.80571 | 12.26916 | 14 ft | 14 kts | 250° |
| 2026-02-20 11:23 | 41.80538 | 12.26797 | 15 ft | 13 kts | 249° |
| 2026-02-20 11:24 | 41.80505 | 12.26676 | 15 ft | 14 kts | 249° |
| 2026-02-20 11:24 | 41.80468 | 12.26543 | 16 ft | 16 kts | 250° |
| 2026-02-20 11:24 | 41.80428 | 12.26404 | 15 ft | 15 kts | 240° |
| 2026-02-20 11:24 | 41.80334 | 12.26377 | 15 ft | 13 kts | 161° |
| 2026-02-20 11:25 | 41.80240 | 12.26411 | 14 ft | 15 kts | 182° |
| 2026-02-20 11:25 | 41.80144 | 12.26362 | 15 ft | 15 kts | 205° |
| 2026-02-20 11:25 | 41.80048 | 12.26303 | 15 ft | 15 kts | 205° |
| 2026-02-20 11:25 | 41.79951 | 12.26243 | 16 ft | 15 kts | 205° |
| 2026-02-20 11:26 | 41.79857 | 12.26185 | 15 ft | 14 kts | 205° |
| 2026-02-20 11:26 | 41.79833 | 12.26083 | 15 ft | 12 kts | 294° |
| 2026-02-20 11:26 | 41.79881 | 12.26055 | 14 ft | 6 kts | 28° |
| 2026-02-20 11:26 | 41.79890 | 12.26087 | 14 ft | 2 kts | 75° |
| 2026-02-20 11:27 | 41.79892 | 12.26097 | 14 ft | 0 kts | 74° |
| 2026-02-20 11:27 | 41.79892 | 12.26098 | 14 ft | 0 kts | 74° |